Time;durP1;ratioP1;P1;durP2;ratioP2;P2;SDS_P1;SDS_P2;PMS_P1;PMS_P2;Temp;Humidity;BMP_temperature;BMP_pressure;BME280_temperature;BME280_humidity;BME280_pressure;Samples;Min_cycle;Max_cycle;Signal;HPM_P1;HPM_P2
2022/01/27 00:02:45;;;;;;;30.80;17.42;;;6.40;99.90;;;;;;5082069;28;20044;-86
2022/01/27 00:07:36;;;;;;;35.97;17.52;;;6.40;99.90;;;;;;5096557;28;20134;-86
2022/01/27 00:10:43;;;;;;;30.80;16.60;;;6.50;99.90;;;;;;5079517;28;20054;-86
2022/01/27 00:12:49;;;;;;;28.45;17.35;;;6.40;99.90;;;;;;5099157;28;20047;-86
2022/01/27 00:15:16;;;;;;;28.70;16.73;;;6.50;99.90;;;;;;5114923;28;20468;-86
2022/01/27 00:17:46;;;;;;;28.90;17.10;;;6.50;99.90;;;;;;5096545;28;20465;-87
2022/01/27 00:20:12;;;;;;;28.75;16.23;;;6.50;99.90;;;;;;5114899;28;20043;-86
2022/01/27 00:22:38;;;;;;;27.50;15.63;;;6.50;99.90;;;;;;5080106;28;20461;-86
2022/01/27 00:25:05;;;;;;;32.13;16.63;;;6.50;99.90;;;;;;5114293;28;20048;-86
2022/01/27 00:27:32;;;;;;;30.08;17.00;;;6.50;99.90;;;;;;5114707;28;20399;-86
2022/01/27 00:30:00;;;;;;;33.63;17.85;;;6.60;99.90;;;;;;5110494;28;20066;-86
2022/01/27 00:32:25;;;;;;;31.52;16.52;;;6.50;99.90;;;;;;5114641;28;20127;-86
2022/01/27 00:34:51;;;;;;;31.65;17.77;;;6.60;99.90;;;;;;5113625;28;20458;-86
2022/01/27 00:37:17;;;;;;;29.00;16.40;;;6.50;99.90;;;;;;5113209;28;20518;-87
2022/01/27 00:39:42;;;;;;;34.50;17.38;;;6.50;99.90;;;;;;5113549;28;20135;-86
2022/01/27 00:42:08;;;;;;;31.58;17.52;;;6.50;99.90;;;;;;5112797;28;20040;-86
2022/01/27 00:44:33;;;;;;;34.67;18.42;;;6.50;99.90;;;;;;5113319;28;20331;-86
2022/01/27 00:46:59;;;;;;;35.55;18.08;;;6.50;99.90;;;;;;5112620;28;20040;-86
2022/01/27 00:49:25;;;;;;;33.03;18.42;;;6.60;99.90;;;;;;5113312;28;20383;-86
2022/01/27 00:51:51;;;;;;;33.35;17.45;;;6.50;99.90;;;;;;5112659;28;20069;-86
2022/01/27 00:54:21;;;;;;;30.95;18.20;;;6.50;99.90;;;;;;5113026;28;20111;-86
2022/01/27 00:56:54;;;;;;;33.35;18.13;;;6.50;99.90;;;;;;5096423;28;20105;-87
2022/01/27 00:59:28;;;;;;;34.63;19.25;;;6.50;99.90;;;;;;5114256;28;20047;-86
2022/01/27 01:02:07;;;;;;;32.08;19.08;;;6.50;99.90;;;;;;5113738;27;20051;-86
2022/01/27 01:04:36;;;;;;;38.38;19.20;;;6.50;99.90;;;;;;5112873;28;20467;-86
2022/01/27 01:07:02;;;;;;;36.90;19.17;;;6.50;99.90;;;;;;5112203;28;20039;-87
2022/01/27 01:35:26;;;;;;;34.97;19.00;;;6.10;99.90;;;;;;5113447;28;20043;-86
2022/01/27 01:37:52;;;;;;;37.53;19.30;;;6.10;99.90;;;;;;5113416;28;20047;-88
2022/01/27 01:40:18;;;;;;;33.03;20.25;;;6.00;99.90;;;;;;5095372;28;20059;-86
2022/01/27 01:42:44;;;;;;;35.20;19.30;;;6.10;99.90;;;;;;5095425;28;20051;-86
2022/01/27 01:45:12;;;;;;;32.25;19.05;;;6.00;99.90;;;;;;5111134;28;20050;-86
2022/01/27 01:47:37;;;;;;;31.58;18.75;;;6.00;99.90;;;;;;5112765;28;20047;-86
2022/01/27 01:50:04;;;;;;;32.38;19.38;;;6.00;99.90;;;;;;5094761;28;20113;-86
2022/01/27 01:52:30;;;;;;;35.33;19.73;;;5.90;99.90;;;;;;5112023;28;20090;-86
2022/01/27 01:54:55;;;;;;;34.03;20.02;;;5.90;99.90;;;;;;5112782;28;20459;-86
2022/01/27 01:57:21;;;;;;;35.70;20.90;;;5.90;99.90;;;;;;5112050;28;20127;-86
2022/01/27 01:59:47;;;;;;;31.92;20.75;;;5.90;99.90;;;;;;5078369;28;20130;-86
2022/01/27 02:02:13;;;;;;;33.72;20.35;;;5.90;99.90;;;;;;5111523;28;20043;-86
2022/01/27 02:04:39;;;;;;;42.25;21.63;;;5.90;99.90;;;;;;5111539;28;20069;-86
2022/01/27 02:07:11;;;;;;;36.83;21.33;;;5.90;99.90;;;;;;5112722;28;20043;-86
2022/01/27 02:18:00;;;;;;;34.33;21.33;;;5.90;99.90;;;;;;5113072;28;20092;-87
2022/01/27 02:20:30;;;;;;;36.10;22.13;;;6.00;99.90;;;;;;5098557;28;20048;-86
2022/01/27 02:22:56;;;;;;;34.37;22.10;;;6.00;99.90;;;;;;5099360;28;20360;-86
2022/01/27 02:25:22;;;;;;;41.55;20.55;;;6.10;99.90;;;;;;5098384;28;20042;-86
2022/01/27 02:27:52;;;;;;;39.10;21.63;;;6.10;99.90;;;;;;5116777;28;20558;-86
2022/01/27 02:30:18;;;;;;;35.40;21.42;;;6.10;99.90;;;;;;5112237;28;20052;-86
2022/01/27 02:32:45;;;;;;;33.40;21.33;;;6.20;99.90;;;;;;5116845;28;20055;-86
2022/01/27 02:35:10;;;;;;;33.80;22.00;;;6.20;99.90;;;;;;5116530;28;20048;-86
2022/01/27 02:37:36;;;;;;;37.13;22.65;;;6.20;99.90;;;;;;5116832;28;20044;-86
2022/01/27 02:40:03;;;;;;;39.60;23.25;;;6.20;99.90;;;;;;5116417;28;20467;-87
2022/01/27 02:42:35;;;;;;;37.40;23.30;;;6.30;99.90;;;;;;5116869;28;20047;-87
2022/01/27 02:45:04;;;;;;;38.65;23.67;;;6.30;99.90;;;;;;5098439;28;20035;-87
2022/01/27 02:47:30;;;;;;;35.78;22.58;;;6.30;99.90;;;;;;5114942;28;20472;-87
2022/01/27 02:49:56;;;;;;;34.97;23.33;;;6.30;99.90;;;;;;5115367;28;20079;-87
2022/01/27 02:52:21;;;;;;;35.95;22.80;;;6.30;99.90;;;;;;5113919;28;20052;-86
2022/01/27 02:54:47;;;;;;;37.05;23.23;;;6.40;99.90;;;;;;5114232;28;20040;-87
2022/01/27 02:57:13;;;;;;;38.75;23.98;;;6.40;99.90;;;;;;5113773;28;20043;-87
2022/01/27 02:59:38;;;;;;;32.28;22.52;;;6.50;99.90;;;;;;5097057;28;20044;-88
2022/01/27 03:02:04;;;;;;;33.50;21.85;;;6.40;99.90;;;;;;5115832;28;20403;-87
2022/01/27 03:04:30;;;;;;;38.13;22.63;;;6.50;99.90;;;;;;5116375;28;20436;-87
2022/01/27 03:06:56;;;;;;;38.00;23.17;;;6.50;99.90;;;;;;5116627;28;20051;-87
2022/01/27 03:09:22;;;;;;;33.50;22.25;;;6.50;99.90;;;;;;5097579;28;20391;-87
2022/01/27 03:11:51;;;;;;;35.22;21.73;;;6.50;99.90;;;;;;5114886;28;20490;-87
2022/01/27 03:14:19;;;;;;;37.33;22.88;;;6.50;99.90;;;;;;5115700;28;20119;-87
2022/01/27 03:16:44;;;;;;;37.55;22.48;;;6.50;99.90;;;;;;5097929;28;20055;-87
2022/01/27 03:19:10;;;;;;;35.97;21.75;;;6.50;99.90;;;;;;5114476;28;20051;-87
2022/01/27 03:21:36;;;;;;;36.40;21.88;;;6.50;99.90;;;;;;5116153;28;20563;-87
2022/01/27 03:24:02;;;;;;;35.60;22.15;;;6.50;99.90;;;;;;5114706;28;20039;-87
2022/01/27 03:26:28;;;;;;;39.63;23.60;;;6.50;99.90;;;;;;5115514;28;20384;-87
2022/01/27 03:28:53;;;;;;;42.60;23.45;;;6.50;99.90;;;;;;5097748;28;20047;-87
2022/01/27 03:31:19;;;;;;;33.95;21.85;;;6.60;99.90;;;;;;5115169;28;20444;-86
2022/01/27 03:33:45;;;;;;;39.22;22.90;;;6.50;99.90;;;;;;5114870;28;20046;-86
2022/01/27 03:36:11;;;;;;;41.55;22.10;;;6.50;99.90;;;;;;5115104;28;20046;-87
2022/01/27 03:38:37;;;;;;;35.28;21.95;;;6.50;99.90;;;;;;5115786;28;20100;-86
2022/01/27 03:41:07;;;;;;;35.47;21.90;;;6.60;99.90;;;;;;5097601;28;20392;-86
2022/01/27 03:43:33;;;;;;;;;;;6.50;99.90;;;;;;5098788;28;20120;-87
2022/01/27 03:45:59;;;;;;;36.60;20.27;;;6.50;99.90;;;;;;5114313;28;20022;-87
2022/01/27 03:48:25;;;;;;;34.30;19.98;;;6.50;99.90;;;;;;5115142;28;20039;-87
2022/01/27 03:50:50;;;;;;;39.78;20.65;;;6.50;99.90;;;;;;5114235;28;20044;-87
2022/01/27 03:53:16;;;;;;;35.58;20.42;;;6.60;99.90;;;;;;5113977;28;20568;-87
2022/01/27 03:55:42;;;;;;;31.95;20.40;;;6.60;99.90;;;;;;5114099;28;20118;-86
2022/01/27 03:58:08;;;;;;;34.70;20.35;;;6.60;99.90;;;;;;5114112;28;20043;-87
2022/01/27 04:00:34;;;;;;;32.58;19.92;;;6.60;99.90;;;;;;5113449;28;20062;-87
2022/01/27 04:03:05;;;;;;;39.90;20.45;;;6.60;99.90;;;;;;5112920;28;20122;-87
2022/01/27 04:05:37;;;;;;;30.67;18.60;;;6.70;99.90;;;;;;5113329;28;20697;-87
2022/01/27 04:08:04;;;;;;;31.38;19.42;;;6.60;99.90;;;;;;5113001;28;20386;-87
2022/01/27 04:10:30;;;;;;;34.60;19.50;;;6.60;99.90;;;;;;5112537;28;20055;-87
2022/01/27 04:12:56;;;;;;;37.10;20.50;;;6.60;99.90;;;;;;5113059;28;20070;-86
2022/01/27 04:15:21;;;;;;;31.33;19.33;;;6.70;99.90;;;;;;5113354;28;20042;-87
2022/01/27 04:17:47;;;;;;;39.50;20.05;;;6.70;99.90;;;;;;5113288;28;20050;-87
2022/01/27 04:20:13;;;;;;;41.72;20.33;;;6.60;99.90;;;;;;5096967;28;20097;-87
2022/01/27 04:22:39;;;;;;;34.10;19.98;;;6.70;99.90;;;;;;5114976;28;20062;-87
2022/01/27 04:25:05;;;;;;;38.97;19.55;;;6.70;99.90;;;;;;5096496;28;20047;-87
2022/01/27 04:27:34;;;;;;;39.53;19.60;;;6.70;99.90;;;;;;5113140;28;20096;-87
2022/01/27 04:30:01;;;;;;;36.17;19.20;;;6.70;99.90;;;;;;5096804;28;20058;-87
2022/01/27 04:32:33;;;;;;;36.45;19.67;;;6.70;99.90;;;;;;5114307;28;20051;-87
2022/01/27 04:35:03;;;;;;;33.28;18.63;;;6.70;99.90;;;;;;5114700;28;20118;-87
2022/01/27 04:37:31;;;;;;;33.07;19.30;;;6.70;99.90;;;;;;5114102;28;20047;-87
2022/01/27 04:40:06;;;;;;;34.63;18.63;;;6.70;99.90;;;;;;5114505;28;20285;-87
2022/01/27 04:45:18;;;;;;;38.40;18.17;;;6.70;99.90;;;;;;5114328;28;20097;-88
2022/01/27 04:47:48;;;;;;;34.30;18.50;;;6.70;99.90;;;;;;5114364;28;20126;-88
2022/01/27 04:50:14;;;;;;;33.63;18.90;;;6.80;99.90;;;;;;5114338;28;20055;-89
2022/01/27 04:52:44;;;;;;;35.92;19.67;;;6.70;99.90;;;;;;5113812;28;20051;-89
2022/01/27 04:55:12;;;;;;;37.00;18.02;;;6.90;99.90;;;;;;5096460;28;20112;-88
2022/01/27 04:57:41;;;;;;;38.10;18.35;;;6.70;99.90;;;;;;5095886;28;20276;-89
2022/01/27 05:00:12;;;;;;;37.05;18.30;;;6.80;99.90;;;;;;5114125;28;20047;-88
2022/01/27 05:02:48;;;;;;;32.47;17.60;;;6.70;99.90;;;;;;5112636;28;20044;-89
2022/01/27 05:05:14;;;;;;;31.65;17.48;;;6.70;99.90;;;;;;5112979;28;20407;-88
2022/01/27 05:07:40;;;;;;;34.08;18.35;;;6.70;99.90;;;;;;5113536;28;20043;-88
2022/01/27 05:10:13;;;;;;;37.10;17.27;;;6.70;99.90;;;;;;5113685;28;20044;-89
2022/01/27 05:15:07;;;;;;;32.53;16.42;;;6.80;99.90;;;;;;5113711;28;20131;-88
2022/01/27 05:17:33;;;;;;;34.42;17.70;;;6.80;99.90;;;;;;5112852;28;20083;-89
2022/01/27 05:19:58;;;;;;;34.22;17.50;;;6.80;99.90;;;;;;5111142;28;20499;-88
2022/01/27 05:22:24;;;;;;;32.47;16.85;;;6.80;99.90;;;;;;5112209;28;20043;-88
2022/01/27 05:24:49;;;;;;;31.88;16.52;;;6.80;99.90;;;;;;5112351;28;20091;-88
2022/01/27 05:27:15;;;;;;;36.58;18.05;;;6.80;99.90;;;;;;5113450;27;20143;-90
2022/01/27 05:29:41;;;;;;;31.52;17.17;;;6.80;99.90;;;;;;5094760;28;20047;-89
2022/01/27 05:32:07;;;;;;;34.45;18.25;;;6.80;99.90;;;;;;5112574;28;20372;-89
2022/01/27 05:34:33;;;;;;;31.58;17.15;;;6.80;99.90;;;;;;5113067;28;20039;-89
2022/01/27 05:36:58;;;;;;;41.25;18.05;;;6.80;99.90;;;;;;5113729;28;20044;-90
2022/01/27 05:39:24;;;;;;;35.30;18.20;;;6.80;99.90;;;;;;5113130;28;20048;-88
2022/01/27 05:41:49;;;;;;;39.50;17.50;;;6.70;99.90;;;;;;5112388;28;20044;-89
2022/01/27 05:44:15;;;;;;;36.78;18.15;;;6.70;99.90;;;;;;5112508;28;20039;-89
2022/01/27 05:46:41;;;;;;;35.05;17.77;;;6.70;99.90;;;;;;5111707;28;20475;-91
2022/01/27 05:49:06;;;;;;;39.90;18.05;;;6.70;99.90;;;;;;5113284;28;20510;-89
2022/01/27 05:51:33;;;;;;;37.40;17.55;;;6.60;99.90;;;;;;5111546;28;20046;-90
2022/01/27 05:53:59;;;;;;;41.85;19.40;;;6.60;99.90;;;;;;5112598;28;20083;-90
2022/01/27 05:56:24;;;;;;;43.33;18.95;;;6.60;99.90;;;;;;5113305;28;20510;-90
2022/01/27 05:58:50;;;;;;;43.42;19.20;;;6.60;99.90;;;;;;5111528;28;20044;-89
2022/01/27 06:01:16;;;;;;;40.25;17.70;;;6.60;99.90;;;;;;5113302;28;20436;-89
2022/01/27 06:03:42;;;;;;;46.15;19.23;;;6.60;99.90;;;;;;5112696;28;20416;-87
2022/01/27 06:06:07;;;;;;;53.15;19.00;;;6.50;99.90;;;;;;5112153;28;20051;-85
2022/01/27 06:08:33;;;;;;;39.72;17.88;;;6.50;99.90;;;;;;5112753;28;20052;-86
2022/01/27 06:10:59;;;;;;;42.50;17.85;;;6.60;99.90;;;;;;5112044;28;20054;-85
2022/01/27 06:13:24;;;;;;;41.15;17.33;;;6.50;99.90;;;;;;5112179;28;20134;-85
2022/01/27 06:15:50;;;;;;;40.85;17.27;;;6.50;99.90;;;;;;5112501;28;20043;-86
2022/01/27 06:18:16;;;;;;;46.65;17.23;;;6.50;99.90;;;;;;5111974;28;20079;-86
2022/01/27 06:20:44;;;;;;;41.72;17.40;;;6.50;99.90;;;;;;5112492;28;20097;-86
2022/01/27 06:23:10;;;;;;;46.63;17.13;;;6.50;99.90;;;;;;5113096;28;20126;-86
2022/01/27 06:25:36;;;;;;;44.10;17.33;;;6.50;99.90;;;;;;5112394;28;20505;-86
2022/01/27 06:28:02;;;;;;;39.92;16.83;;;6.60;99.90;;;;;;5112949;28;20040;-86
2022/01/27 06:30:27;;;;;;;49.40;17.92;;;6.50;99.90;;;;;;5111413;28;20059;-86
2022/01/27 06:32:53;;;;;;;46.53;16.88;;;6.50;99.90;;;;;;5112617;28;20482;-85
2022/01/27 06:35:19;;;;;;;40.28;16.88;;;6.50;99.90;;;;;;5111595;28;20097;-87
2022/01/27 06:37:47;;;;;;;43.53;16.20;;;6.60;99.90;;;;;;5111354;28;20406;-86
2022/01/27 06:40:14;;;;;;;40.10;15.88;;;6.60;99.90;;;;;;5111666;28;20101;-86
2022/01/27 06:42:40;;;;;;;38.28;15.98;;;6.60;99.90;;;;;;5094245;28;20059;-89
2022/01/27 06:45:06;;;;;;;36.80;15.73;;;6.60;99.90;;;;;;5077744;28;20047;-91
2022/01/27 06:47:32;;;;;;;36.00;14.77;;;6.60;99.90;;;;;;5111557;28;20043;-86
2022/01/27 06:49:57;;;;;;;39.20;15.60;;;6.60;99.90;;;;;;5112203;28;20368;-91
2022/01/27 06:52:26;;;;;;;34.17;14.07;;;6.70;99.90;;;;;;5094676;28;20383;-90
2022/01/27 06:54:52;;;;;;;29.25;13.77;;;6.60;99.90;;;;;;5111186;28;20047;-90
2022/01/27 06:57:18;;;;;;;35.80;13.68;;;6.70;99.90;;;;;;5094664;28;20391;-90
2022/01/27 06:59:43;;;;;;;28.75;13.10;;;6.70;99.90;;;;;;5112334;28;20047;-89
2022/01/27 07:02:09;;;;;;;33.13;14.02;;;6.70;99.90;;;;;;5111494;28;20050;-90
2022/01/27 07:04:35;;;;;;;32.35;13.80;;;6.70;99.90;;;;;;5111322;28;20433;-90
2022/01/27 07:07:00;;;;;;;38.22;13.63;;;6.80;99.90;;;;;;5113892;28;20126;-89
2022/01/27 07:09:26;;;;;;;30.90;13.60;;;6.70;99.90;;;;;;5098001;28;20051;-90
2022/01/27 07:11:52;;;;;;;32.45;13.45;;;6.70;99.90;;;;;;5114692;28;20044;-90
2022/01/27 07:14:18;;;;;;;29.35;12.88;;;6.80;99.90;;;;;;5115948;28;20039;-90
2022/01/27 07:16:44;;;;;;;32.08;13.50;;;6.80;99.90;;;;;;5114535;28;20122;-90
2022/01/27 07:19:09;;;;;;;32.47;13.13;;;6.90;99.90;;;;;;5114993;28;20548;-89
2022/01/27 07:21:35;;;;;;;26.85;13.07;;;6.90;99.90;;;;;;5115285;28;20089;-89
2022/01/27 07:24:01;;;;;;;28.02;12.30;;;6.90;99.90;;;;;;5114507;28;20043;-90
2022/01/27 07:26:26;;;;;;;27.42;12.02;;;6.90;99.90;;;;;;5097900;28;20040;-89
2022/01/27 07:28:53;;;;;;;25.33;12.10;;;6.90;99.90;;;;;;5115318;28;20111;-89
2022/01/27 07:31:19;;;;;;;27.77;12.65;;;6.90;99.90;;;;;;5097878;28;20047;-90
2022/01/27 07:33:47;;;;;;;34.45;12.75;;;6.90;99.90;;;;;;5080664;28;20044;-90
2022/01/27 07:36:14;;;;;;;25.52;11.88;;;7.10;99.90;;;;;;5098001;28;20051;-90
2022/01/27 07:38:39;;;;;;;26.67;12.18;;;6.90;99.90;;;;;;5081233;28;20059;-91
2022/01/27 07:41:05;;;;;;;30.25;12.43;;;7.00;99.90;;;;;;5115765;28;20039;-91
2022/01/27 07:43:31;;;;;;;30.60;12.02;;;7.10;99.90;;;;;;5115880;28;20054;-91
2022/01/27 07:45:56;;;;;;;27.58;13.43;;;7.10;99.90;;;;;;5115271;28;20035;-91
2022/01/27 07:48:22;;;;;;;31.80;12.55;;;7.00;99.90;;;;;;5080731;28;20044;-89
2022/01/27 07:50:48;;;;;;;31.13;12.38;;;7.10;99.90;;;;;;5115267;28;20506;-91
2022/01/27 07:53:14;;;;;;;31.05;13.27;;;7.10;99.90;;;;;;5097562;28;20052;-89
2022/01/27 07:55:39;;;;;;;30.88;13.48;;;7.10;99.90;;;;;;5115476;28;20040;-89
2022/01/27 07:58:05;;;;;;;39.58;14.30;;;7.20;99.90;;;;;;5114946;28;20461;-89
2022/01/27 08:00:31;;;;;;;34.95;13.02;;;7.20;99.90;;;;;;5115378;28;20537;-89
2022/01/27 08:02:56;;;;;;;33.92;12.07;;;7.20;99.90;;;;;;5114831;28;20059;-89
2022/01/27 08:05:22;;;;;;;42.72;13.23;;;7.30;99.90;;;;;;5115223;28;20040;-90
2022/01/27 08:07:48;;;;;;;31.63;11.82;;;7.20;99.90;;;;;;5079755;28;20392;-90
2022/01/27 08:10:13;;;;;;;31.33;12.57;;;7.30;99.90;;;;;;5080193;28;20079;-90
2022/01/27 08:12:43;;;;;;;35.17;12.88;;;7.40;99.90;;;;;;5115153;28;20050;-88
2022/01/27 08:15:11;;;;;;;36.15;12.48;;;7.40;99.90;;;;;;5080361;28;20039;-92
2022/01/27 08:17:37;;;;;;;32.55;11.23;;;7.40;99.90;;;;;;5096195;28;20055;-91
2022/01/27 08:20:03;;;;;;;31.88;11.32;;;7.50;99.90;;;;;;5096506;28;20044;-91
2022/01/27 08:22:29;;;;;;;37.22;11.30;;;7.40;99.90;;;;;;5115075;28;20048;-91
2022/01/27 08:24:54;;;;;;;27.85;10.52;;;7.40;99.90;;;;;;5096365;28;20052;-92
2022/01/27 08:27:25;;;;;;;36.13;11.00;;;7.50;99.90;;;;;;5118357;28;20048;-94
2022/01/27 08:29:56;;;;;;;;;;;7.50;99.90;;;;;;5119998;28;20085;-94
2022/01/27 08:32:31;;;;;;;26.55;9.50;;;7.50;99.90;;;;;;5117604;28;20283;-94
2022/01/27 08:34:56;;;;;;;28.85;9.30;;;7.60;99.90;;;;;;5120148;28;20050;-95
2022/01/27 08:37:22;;;;;;;26.38;9.80;;;7.70;99.90;;;;;;5121534;28;20066;-94
2022/01/27 08:39:48;;;;;;;26.33;10.32;;;7.80;99.90;;;;;;5099160;28;20079;-95
2022/01/27 08:42:14;;;;;;;33.22;9.93;;;7.80;99.90;;;;;;5097059;28;20446;-93
2022/01/27 08:44:39;;;;;;;34.88;10.13;;;7.90;99.90;;;;;;5095756;28;20046;-92
2022/01/27 08:47:06;;;;;;;32.05;9.00;;;8.00;99.90;;;;;;5081088;28;20395;-94
2022/01/27 08:49:31;;;;;;;25.33;8.40;;;7.90;99.90;;;;;;5104501;28;20048;-94
2022/01/27 08:51:57;;;;;;;24.63;8.23;;;8.00;99.90;;;;;;5096276;28;20039;-92
2022/01/27 08:54:24;;;;;;;26.23;8.13;;;8.10;99.90;;;;;;5078783;28;20140;-93
2022/01/27 08:56:49;;;;;;;26.58;8.10;;;8.00;99.90;;;;;;5096033;28;20047;-92
2022/01/27 08:59:16;;;;;;;24.83;8.23;;;8.10;99.90;;;;;;5113217;28;20048;-92
2022/01/27 09:01:42;;;;;;;22.17;8.18;;;8.10;99.90;;;;;;5113953;28;20051;-93
2022/01/27 09:04:08;;;;;;;20.88;7.78;;;8.10;99.90;;;;;;5095455;28;20391;-93
2022/01/27 09:06:34;;;;;;;23.30;7.85;;;8.00;99.90;;;;;;5079224;28;20126;-92
2022/01/27 09:09:00;;;;;;;25.40;7.40;;;8.10;99.90;;;;;;5113485;28;20117;-92
2022/01/27 09:11:28;;;;;;;22.48;7.55;;;8.10;99.90;;;;;;5113748;28;20051;-92
2022/01/27 09:13:55;;;;;;;26.85;7.20;;;8.20;99.90;;;;;;5095746;28;20047;-90
2022/01/27 09:16:21;;;;;;;22.77;7.10;;;8.20;99.90;;;;;;5095954;28;20389;-92
2022/01/27 09:18:46;;;;;;;21.45;7.15;;;8.10;99.90;;;;;;5113345;28;20044;-93
2022/01/27 09:21:19;;;;;;;22.20;6.47;;;8.30;99.90;;;;;;5113119;28;20050;-93
2022/01/27 09:23:45;;;;;;;21.02;6.32;;;8.30;99.90;;;;;;5080140;28;20483;-92
2022/01/27 09:26:37;;;;;;;18.67;6.00;;;8.30;99.90;;;;;;5113096;28;20050;-93
2022/01/27 09:28:56;;;;;;;20.88;6.10;;;8.30;99.90;;;;;;5112983;28;20445;-87
2022/01/27 09:31:22;;;;;;;25.20;6.18;;;8.30;99.90;;;;;;5095674;28;20047;-92
2022/01/27 09:33:47;;;;;;;24.58;6.63;;;8.30;99.90;;;;;;5113406;28;20479;-92
2022/01/27 09:36:13;;;;;;;23.98;6.28;;;8.40;99.90;;;;;;5112970;28;20395;-92
2022/01/27 09:38:39;;;;;;;24.98;6.18;;;8.40;99.90;;;;;;5113207;28;20043;-92
2022/01/27 09:41:07;;;;;;;21.60;5.97;;;8.50;99.90;;;;;;5094871;28;20050;-93
2022/01/27 09:43:33;;;;;;;21.80;6.15;;;8.50;99.90;;;;;;5113288;28;20054;-93
2022/01/27 09:45:58;;;;;;;18.95;5.07;;;8.50;99.90;;;;;;5094945;28;20043;-87
2022/01/27 09:48:26;;;;;;;18.58;5.22;;;8.50;99.90;;;;;;5113230;28;20051;-91
2022/01/27 09:51:39;;;;;;;21.83;5.75;;;8.50;99.90;;;;;;5095419;28;20130;-93
2022/01/27 09:53:40;;;;;;;19.45;5.20;;;8.60;99.90;;;;;;5101753;28;20455;-93
2022/01/27 09:56:06;;;;;;;17.88;5.70;;;8.60;99.90;;;;;;5077876;28;20131;-93
2022/01/27 09:58:32;;;;;;;19.38;5.55;;;8.70;99.90;;;;;;5113017;28;20047;-92
2022/01/27 10:00:57;;;;;;;19.60;5.65;;;8.70;99.90;;;;;;5113134;28;20092;-92
2022/01/27 10:03:26;;;;;;;19.42;5.55;;;8.80;99.90;;;;;;5112558;28;20055;-91
2022/01/27 10:05:52;;;;;;;20.85;5.05;;;8.80;99.90;;;;;;5094907;28;20044;-93
2022/01/27 10:08:19;;;;;;;21.88;5.50;;;8.90;99.90;;;;;;5077635;28;20048;-92
2022/01/27 10:10:46;;;;;;;24.45;5.28;;;8.90;99.90;;;;;;5094799;28;20056;-92
2022/01/27 10:13:35;;;;;;;25.95;6.00;;;9.00;99.90;;;;;;5094390;28;20391;-92
2022/01/27 10:16:01;;;;;;;22.60;5.53;;;9.00;99.90;;;;;;5095184;28;20077;-93
2022/01/27 10:18:27;;;;;;;21.25;5.50;;;9.00;99.90;;;;;;5112308;28;20052;-92
2022/01/27 10:20:59;;;;;;;26.45;5.53;;;9.10;99.90;;;;;;5112845;28;20043;-92
2022/01/27 10:23:33;;;;;;;25.00;5.93;;;9.10;99.90;;;;;;5112350;28;20091;-93
2022/01/27 10:26:08;;;;;;;20.83;5.68;;;9.10;99.90;;;;;;5112409;28;20044;-90
2022/01/27 10:29:01;;;;;;;24.00;4.97;;;9.10;99.90;;;;;;5095837;28;20047;-92
2022/01/27 10:31:26;;;;;;;24.73;5.40;;;9.10;99.90;;;;;;5094148;28;20052;-92
2022/01/27 10:34:02;;;;;;;27.75;5.88;;;9.10;99.90;;;;;;5094596;28;20123;-93
2022/01/27 10:36:31;;;;;;;18.40;4.32;;;9.10;99.90;;;;;;5077782;28;20043;-92
2022/01/27 10:39:00;;;;;;;23.73;5.38;;;9.10;99.90;;;;;;5094767;28;20061;-92
2022/01/27 10:41:27;;;;;;;23.40;5.00;;;9.20;99.90;;;;;;5114259;28;20377;-93
2022/01/27 10:44:16;;;;;;;24.30;4.85;;;9.20;99.90;;;;;;5098725;28;20055;-92
2022/01/27 10:47:06;;;;;;;19.23;4.57;;;9.20;99.90;;;;;;5098714;28;20109;-92
2022/01/27 10:49:34;;;;;;;17.67;4.75;;;9.30;99.90;;;;;;5098437;28;20103;-92
2022/01/27 10:52:00;;;;;;;22.52;4.78;;;9.30;99.90;;;;;;5098626;28;20058;-92
2022/01/27 10:54:42;;;;;;;16.98;4.38;;;9.30;99.90;;;;;;5097849;28;20387;-93
2022/01/27 10:57:10;;;;;;;17.33;4.55;;;9.30;99.90;;;;;;5100635;28;20043;-87
2022/01/27 10:59:36;;;;;;;17.58;4.65;;;9.30;99.90;;;;;;5098412;28;20047;-92
2022/01/27 11:02:10;;;;;;;21.38;4.75;;;9.40;99.90;;;;;;5098401;28;20445;-92
2022/01/27 11:04:37;;;;;;;15.52;4.47;;;9.40;99.90;;;;;;5098234;28;20111;-92
2022/01/27 11:07:05;;;;;;;21.08;4.90;;;9.40;99.90;;;;;;5098276;28;20090;-93
2022/01/27 11:09:37;;;;;;;18.92;4.40;;;9.40;99.90;;;;;;5097853;28;20078;-91
2022/01/27 11:12:07;;;;;;;23.67;4.72;;;9.50;99.90;;;;;;5082283;28;20062;-92
2022/01/27 11:14:34;;;;;;;21.23;3.90;;;9.40;99.90;;;;;;5115504;28;20056;-91
2022/01/27 11:17:01;;;;;;;17.30;4.28;;;9.40;99.90;;;;;;5097967;28;20176;-92
2022/01/27 11:22:23;;;;;;;25.05;4.35;;;9.40;99.90;;;;;;5098826;28;20133;-93
2022/01/27 11:25:49;;;;;;;20.25;4.05;;;9.40;99.90;;;;;;5100646;28;20039;-92
2022/01/27 11:27:54;;;;;;;15.55;4.00;;;9.40;99.90;;;;;;5106429;28;20552;-92
2022/01/27 11:30:22;;;;;;;19.83;3.83;;;9.50;99.90;;;;;;5096542;28;20083;-93
2022/01/27 11:33:07;;;;;;;14.80;3.35;;;9.50;99.90;;;;;;5114768;28;20104;-92
2022/01/27 11:35:32;;;;;;;15.15;3.72;;;9.50;99.90;;;;;;5115310;28;20047;-92
2022/01/27 11:38:03;;;;;;;22.15;4.45;;;9.50;99.90;;;;;;5114472;28;20043;-93
2022/01/27 11:40:34;;;;;;;20.05;3.78;;;9.60;99.90;;;;;;5113950;28;20039;-92
2022/01/27 11:43:02;;;;;;;13.27;3.40;;;9.60;99.90;;;;;;5115549;28;20048;-92
2022/01/27 11:45:35;;;;;;;19.55;3.65;;;9.60;99.90;;;;;;5113904;28;20399;-92
2022/01/27 11:48:08;;;;;;;24.88;3.80;;;9.60;99.90;;;;;;5097364;28;20051;-92
2022/01/27 11:51:07;;;;;;;20.10;3.72;;;9.60;99.90;;;;;;5097972;28;20389;-91
2022/01/27 11:53:37;;;;;;;15.32;3.33;;;9.70;99.90;;;;;;5080485;28;20123;-92
2022/01/27 11:56:04;;;;;;;18.70;3.80;;;9.70;99.90;;;;;;5115398;28;20040;-93
2022/01/27 11:58:30;;;;;;;19.98;4.30;;;9.70;99.90;;;;;;5113876;28;20487;-92
2022/01/27 12:01:06;;;;;;;15.68;3.53;;;9.70;99.90;;;;;;5115271;28;20048;-93
2022/01/27 12:03:32;;;;;;;24.15;4.63;;;9.70;99.90;;;;;;5114808;28;20135;-91
2022/01/27 12:06:13;;;;;;;17.13;3.60;;;9.70;99.90;;;;;;5113903;28;20079;-92
2022/01/27 12:08:39;;;;;;;21.48;4.18;;;9.70;99.90;;;;;;5114678;28;20043;-93
2022/01/27 12:11:08;;;;;;;16.58;3.47;;;9.70;99.90;;;;;;5113764;28;20047;-92
2022/01/27 12:13:49;;;;;;;24.65;3.50;;;9.70;99.90;;;;;;5113367;28;20101;-92
2022/01/27 12:19:00;;;;;;;19.38;3.83;;;9.70;99.90;;;;;;5114048;28;20397;-92
2022/01/27 12:21:35;;;;;;;19.33;3.83;;;9.70;99.90;;;;;;5114394;28;20047;-91
2022/01/27 12:24:13;;;;;;;17.67;3.90;;;9.70;99.90;;;;;;5097572;28;20054;-92
2022/01/27 12:26:54;;;;;;;19.95;3.60;;;9.70;99.90;;;;;;5114164;28;20048;-92
2022/01/27 12:29:40;;;;;;;22.08;4.05;;;9.70;99.90;;;;;;5113355;28;20521;-91
2022/01/27 12:32:07;;;;;;;22.88;3.97;;;9.70;99.90;;;;;;5081164;28;20471;-91
2022/01/27 12:34:34;;;;;;;24.23;4.07;;;9.60;99.90;;;;;;5112839;28;20503;-93
2022/01/27 12:37:06;;;;;;;20.42;3.83;;;9.70;99.90;;;;;;5114503;28;20122;-92
2022/01/27 12:39:37;;;;;;;21.38;4.47;;;9.70;99.90;;;;;;5096130;28;20502;-91
2022/01/27 12:42:04;;;;;;;20.98;3.95;;;9.70;99.90;;;;;;5114491;28;20102;-94
2022/01/27 12:44:31;;;;;;;19.33;3.88;;;9.70;99.90;;;;;;5114036;28;20044;-93
2022/01/27 12:47:15;;;;;;;20.30;3.60;;;9.70;99.90;;;;;;5113156;28;20043;-93
2022/01/27 12:49:43;;;;;;;20.17;4.35;;;9.80;99.90;;;;;;5113864;28;20051;-93
2022/01/27 12:52:11;;;;;;;17.48;3.25;;;9.80;99.90;;;;;;5112935;28;20044;-92
2022/01/27 12:54:37;;;;;;;23.02;3.63;;;9.80;99.90;;;;;;5112481;28;20043;-93
2022/01/27 12:57:04;;;;;;;28.38;4.13;;;9.90;99.90;;;;;;5113090;28;20051;-92
2022/01/27 12:59:31;;;;;;;20.80;4.47;;;9.90;99.90;;;;;;5112768;28;20051;-93
2022/01/27 13:01:58;;;;;;;20.13;3.60;;;9.90;99.90;;;;;;5112876;28;20055;-93
2022/01/27 13:04:25;;;;;;;23.15;4.38;;;10.00;99.90;;;;;;5113316;28;20053;-94
2022/01/27 13:06:52;;;;;;;20.13;3.28;;;10.00;99.90;;;;;;5112788;28;20428;-93
2022/01/27 13:09:18;;;;;;;21.80;3.92;;;10.00;99.90;;;;;;5113916;28;20050;-93
2022/01/27 13:11:46;;;;;;;20.60;3.47;;;10.00;99.90;;;;;;5113444;28;20044;-92
2022/01/27 13:14:11;;;;;;;22.90;4.00;;;10.00;99.90;;;;;;5112659;28;20438;-93
2022/01/27 13:16:48;;;;;;;15.82;4.13;;;10.00;99.90;;;;;;5113616;28;20043;-93
2022/01/27 13:19:24;;;;;;;21.85;3.00;;;10.00;99.90;;;;;;5096398;28;20111;-93
2022/01/27 13:22:03;;;;;;;21.73;3.42;;;10.00;99.90;;;;;;5112115;28;20070;-91
2022/01/27 13:24:32;;;;;;;23.67;3.72;;;10.00;99.90;;;;;;5095133;28;20050;-89
2022/01/27 13:27:08;;;;;;;25.08;3.53;;;10.00;99.90;;;;;;5113565;28;20079;-92
2022/01/27 13:29:41;;;;;;;19.77;3.72;;;10.00;99.90;;;;;;5111787;28;20059;-92
2022/01/27 13:32:08;;;;;;;19.98;3.38;;;10.00;99.90;;;;;;5112301;28;20086;-92
2022/01/27 13:34:33;;;;;;;22.02;3.60;;;9.90;99.90;;;;;;5094929;28;20047;-92